Terminal Aerodrome Forecast
Issued by NWS Cleveland, OH

Home | Current Version | Previous Version | Graphics & Text | Print | Product List | Glossary On
Versions: 1 2 3 4 5 6 7 8 9 10 11 12 13 14 15 16 17 18 19 20 21 22 23 24 25 26 27 28 29 30
000
FTUS41 KCLE 082338
TAFCLE
TAF
KCLE 082338Z 0900/1006 21008KT P6SM SCT250
     FM091300 19010KT P6SM BKN120
     FM092000 23012KT 2SM -SN SCT015 OVC025
     FM100000 26010KT 3SM -SHSN OVC015
     FM100500 31015G25KT 4SM -SHSN SCT012 OVC020=

USA.gov is the U.S. government's official web portal to all federal, state and local government web resources and services.